createdAt,value
2017-07-21T00:01:03.119Z,98612.47
2017-07-21T00:03:31.410Z,98620.78
2017-07-21T00:06:00.121Z,98623.38
2017-07-21T00:08:28.202Z,98621.20
2017-07-21T00:10:56.942Z,98621.61
2017-07-21T00:13:25.878Z,98624.91
2017-07-21T00:15:53.998Z,98625.36
2017-07-21T00:18:22.461Z,98628.78
2017-07-21T00:20:50.843Z,98622.45
2017-07-21T00:23:20.399Z,98627.85
2017-07-21T00:25:48.851Z,98629.09
2017-07-21T00:28:18.617Z,98631.17
2017-07-21T00:30:47.041Z,98629.89
2017-07-21T00:33:16.723Z,98630.72
2017-07-21T00:35:45.596Z,98632.48
2017-07-21T00:38:14.015Z,98643.71
2017-07-21T00:40:42.383Z,98638.52
2017-07-21T00:43:11.292Z,98642.94
2017-07-21T00:45:39.979Z,98646.67
2017-07-21T00:48:08.233Z,98653.80
2017-07-21T00:50:37.074Z,98652.87
2017-07-21T00:53:05.438Z,98657.23
2017-07-21T00:55:33.967Z,98658.47
2017-07-21T00:58:02.476Z,98664.67
2017-07-21T01:00:30.935Z,98666.73
2017-07-21T01:02:59.149Z,98673.17
2017-07-21T01:05:27.911Z,98677.02
2017-07-21T01:07:56.283Z,98684.28
2017-07-21T01:10:24.998Z,98690.63
2017-07-21T01:12:53.435Z,98693.41
2017-07-21T01:15:21.499Z,98707.45
2017-07-21T01:17:50.018Z,98712.05
2017-07-21T01:20:21.059Z,98716.22
2017-07-21T01:22:49.431Z,98714.00
2017-07-21T01:25:20.043Z,98712.29
2017-07-21T01:27:48.633Z,98725.55
2017-07-21T01:30:20.405Z,98723.88
2017-07-21T01:32:48.973Z,98725.39
2017-07-21T01:35:19.454Z,98719.62
2017-07-21T01:37:48.301Z,98725.17
2017-07-21T01:40:18.827Z,98724.40
2017-07-21T01:42:47.115Z,98724.08
2017-07-21T01:45:16.666Z,98730.44
2017-07-21T01:47:45.280Z,98736.72
2017-07-21T01:50:13.382Z,98739.36
2017-07-21T01:52:41.866Z,98741.27
2017-07-21T01:55:10.174Z,98742.22
2017-07-21T01:57:38.734Z,98740.90
2017-07-21T02:00:08.998Z,98742.08
2017-07-21T02:02:37.334Z,98739.70
2017-07-21T02:05:05.523Z,98737.31
2017-07-21T02:07:34.426Z,98740.12
2017-07-21T02:10:02.957Z,98738.59
2017-07-21T02:12:31.567Z,98737.52
2017-07-21T02:14:59.946Z,98742.18
2017-07-21T02:17:28.105Z,98747.31
2017-07-21T02:19:56.564Z,98750.13
2017-07-21T02:22:25.367Z,98744.56
2017-07-21T02:24:53.964Z,98741.53
2017-07-21T02:27:22.515Z,98740.52
2017-07-21T02:29:50.889Z,98747.34
2017-07-21T02:32:21.199Z,98744.23
2017-07-21T02:34:49.845Z,98747.39
2017-07-21T02:37:20.536Z,98749.89
2017-07-21T02:39:49.136Z,98747.31
2017-07-21T02:42:19.242Z,98752.72
2017-07-21T02:44:47.936Z,98754.23
2017-07-21T02:47:18.868Z,98759.70
2017-07-21T02:49:46.933Z,98755.33
2017-07-21T02:52:15.118Z,98761.52
2017-07-21T02:54:43.911Z,98763.43
2017-07-21T02:57:12.279Z,98765.98
2017-07-21T02:59:40.795Z,98762.89
2017-07-21T03:02:09.478Z,98763.18
2017-07-21T03:04:37.729Z,98766.85
2017-07-21T03:07:05.834Z,98766.30
2017-07-21T03:09:34.271Z,98772.57
2017-07-21T03:12:03.273Z,98773.59
2017-07-21T03:14:31.869Z,98774.34
2017-07-21T03:17:00.185Z,98774.72
2017-07-21T03:19:28.746Z,98775.53
2017-07-21T03:21:57.132Z,98783.17
2017-07-21T03:24:25.623Z,98791.70
2017-07-21T03:26:54.052Z,98795.59
2017-07-21T03:29:23.034Z,98796.42
2017-07-21T03:31:51.642Z,98795.05
2017-07-21T03:34:21.663Z,98793.92
2017-07-21T03:36:50.332Z,98798.55
2017-07-21T03:39:20.939Z,98789.56
2017-07-21T03:41:49.340Z,98793.06
2017-07-21T03:44:20.587Z,98794.92
2017-07-21T03:46:49.068Z,98796.08
2017-07-21T03:49:19.607Z,98798.09
2017-07-21T03:51:48.271Z,98797.22
2017-07-21T03:54:18.608Z,98797.64
2017-07-21T03:56:46.995Z,98800.95
2017-07-21T03:59:15.279Z,98801.17
2017-07-21T04:01:44.328Z,98791.35
2017-07-21T04:04:12.736Z,98797.26
2017-07-21T04:06:40.855Z,98790.38
2017-07-21T04:09:09.787Z,98792.05
2017-07-21T04:11:38.190Z,98791.13
2017-07-21T04:14:06.446Z,98789.87
2017-07-21T04:16:35.036Z,98792.70
2017-07-21T04:19:03.719Z,98796.65
2017-07-21T04:21:32.216Z,98795.66
2017-07-21T04:24:00.395Z,98792.03
2017-07-21T04:26:28.962Z,98791.88
2017-07-21T04:28:57.509Z,98790.63
2017-07-21T04:31:26.019Z,98789.05
2017-07-21T04:33:54.402Z,98781.77
2017-07-21T04:36:22.657Z,98786.99
2017-07-21T04:38:51.570Z,98791.55
2017-07-21T04:41:21.480Z,98794.85
2017-07-21T04:43:50.070Z,98790.91
2017-07-21T04:46:21.644Z,98796.42
2017-07-21T04:48:49.815Z,98798.61
2017-07-21T04:51:20.537Z,98801.98
2017-07-21T04:53:49.503Z,98800.44
2017-07-21T04:56:21.271Z,98804.41
2017-07-21T04:58:49.427Z,98812.92
2017-07-21T05:01:20.985Z,98814.66
2017-07-21T05:03:49.345Z,98816.97
2017-07-21T05:06:20.461Z,98815.27
2017-07-21T05:08:49.082Z,98822.97
2017-07-21T05:11:19.387Z,98823.03
2017-07-21T05:13:47.714Z,98822.23
2017-07-21T05:16:17.191Z,98824.41
2017-07-21T05:18:45.600Z,98822.77
2017-07-21T05:21:13.731Z,98824.63
2017-07-21T05:23:42.131Z,98823.27
2017-07-21T05:26:10.514Z,98831.65
2017-07-21T05:28:38.791Z,98829.65
2017-07-21T05:31:07.554Z,98827.27
2017-07-21T05:33:35.852Z,98832.06
2017-07-21T05:36:04.144Z,98831.45
2017-07-21T05:38:32.868Z,98832.59
2017-07-21T05:41:01.416Z,98840.05
2017-07-21T05:43:29.691Z,98839.14
2017-07-21T05:45:58.232Z,98838.50
2017-07-21T05:48:26.274Z,98850.31
2017-07-21T05:50:55.004Z,98850.25
2017-07-21T05:53:25.078Z,98852.59
2017-07-21T05:55:53.469Z,98849.47
2017-07-21T05:58:21.986Z,98850.55
2017-07-21T06:00:50.426Z,98849.27
2017-07-21T06:03:20.854Z,98858.95
2017-07-21T06:05:48.986Z,98849.19
2017-07-21T06:08:19.468Z,98855.01
2017-07-21T06:10:47.671Z,98854.84
2017-07-21T06:13:18.403Z,98854.35
2017-07-21T06:15:46.775Z,98862.17
2017-07-21T06:18:14.956Z,98865.87
2017-07-21T06:20:43.088Z,98867.83
2017-07-21T06:23:11.456Z,98869.36
2017-07-21T06:25:39.899Z,98875.34
2017-07-21T06:28:08.074Z,98882.32
2017-07-21T06:30:36.630Z,98876.84
2017-07-21T06:33:05.028Z,98868.80
2017-07-21T06:35:33.206Z,98867.92
2017-07-21T06:38:01.902Z,98869.03
2017-07-21T06:40:29.942Z,98870.69
2017-07-21T06:42:58.527Z,98867.63
2017-07-21T06:45:26.987Z,98866.97
2017-07-21T06:47:55.074Z,98867.30
2017-07-21T06:50:23.573Z,98873.20
2017-07-21T06:52:52.579Z,98873.83
2017-07-21T06:55:20.626Z,98870.43
2017-07-21T06:57:48.904Z,98873.94
2017-07-21T07:00:18.732Z,98877.63
2017-07-21T07:02:47.219Z,98878.73
2017-07-21T07:05:15.283Z,98876.80
2017-07-21T07:07:44.259Z,98878.37
2017-07-21T07:10:12.314Z,98883.03
2017-07-21T07:12:40.378Z,98885.20
2017-07-21T07:17:46.490Z,98887.83
2017-07-21T07:20:14.822Z,98891.00
2017-07-21T07:22:42.894Z,98887.63
2017-07-21T07:25:11.100Z,98895.16
2017-07-21T07:27:40.062Z,98894.81
2017-07-21T07:30:09.726Z,98894.25
2017-07-21T07:32:37.879Z,98895.05
2017-07-21T07:35:06.938Z,98895.43
2017-07-21T07:37:35.360Z,98894.02
2017-07-21T07:40:03.626Z,98892.39
2017-07-21T07:42:32.617Z,98893.91
2017-07-21T07:45:01.193Z,98897.22
2017-07-21T07:47:29.322Z,98890.92
2017-07-21T07:49:58.378Z,98897.24
2017-07-21T07:52:26.663Z,98891.20
2017-07-21T07:54:55.014Z,98890.77
2017-07-21T07:57:23.920Z,98894.52
2017-07-21T07:59:52.386Z,98896.77
2017-07-21T08:02:21.122Z,98895.41
2017-07-21T08:04:49.449Z,98893.19
2017-07-21T08:07:19.467Z,98901.34
2017-07-21T08:09:47.534Z,98901.59
2017-07-21T08:12:18.261Z,98895.37
2017-07-21T08:14:46.977Z,98890.06
2017-07-21T08:17:15.363Z,98891.64
2017-07-21T08:19:44.088Z,98888.39
2017-07-21T08:22:12.134Z,98894.44
2017-07-21T08:24:40.218Z,98895.70
2017-07-21T08:27:08.653Z,98894.74
2017-07-21T08:29:36.762Z,98901.73
2017-07-21T08:32:05.090Z,98900.73
2017-07-21T08:34:33.723Z,98898.05
2017-07-21T08:37:01.903Z,98903.92
2017-07-21T08:39:30.116Z,98897.72
2017-07-21T08:41:58.490Z,98891.91
2017-07-21T08:44:26.601Z,98892.45
2017-07-21T08:46:56.262Z,98889.75
2017-07-21T08:49:24.652Z,98894.66
2017-07-21T08:51:52.775Z,98888.08
2017-07-21T08:54:20.893Z,98886.48
2017-07-21T08:56:50.504Z,98888.17
2017-07-21T08:59:20.015Z,98880.73
2017-07-21T09:01:48.089Z,98880.95
2017-07-21T09:04:17.842Z,98877.02
2017-07-21T09:06:45.901Z,98879.32
2017-07-21T09:09:13.975Z,98876.86
2017-07-21T09:11:42.302Z,98868.59
2017-07-21T09:14:10.419Z,98866.88
2017-07-21T09:16:38.506Z,98871.48
2017-07-21T09:19:07.557Z,98874.20
2017-07-21T09:21:35.622Z,98866.80
2017-07-21T09:24:03.723Z,98869.62
2017-07-21T09:26:32.083Z,98872.12
2017-07-21T09:29:00.125Z,98862.72
2017-07-21T09:31:28.866Z,98873.05
2017-07-21T09:33:57.446Z,98865.36
2017-07-21T09:36:25.889Z,98859.91
2017-07-21T09:38:53.926Z,98859.68
2017-07-21T09:41:22.278Z,98862.25
2017-07-21T09:43:50.642Z,98856.14
2017-07-21T09:46:19.754Z,98856.98
2017-07-21T09:48:48.121Z,98856.55
2017-07-21T09:51:17.014Z,98855.71
2017-07-21T09:53:45.273Z,98854.67
2017-07-21T09:56:13.817Z,98847.63
2017-07-21T09:58:41.885Z,98840.38
2017-07-21T10:01:10.460Z,98839.17
2017-07-21T10:03:38.798Z,98836.80
2017-07-21T10:06:06.968Z,98834.87
2017-07-21T10:08:35.051Z,98827.36
2017-07-21T10:11:05.058Z,98829.28
2017-07-21T10:13:33.229Z,98818.66
2017-07-21T10:16:01.653Z,98824.67
2017-07-21T10:18:30.023Z,98816.38
2017-07-21T10:20:58.087Z,98815.33
2017-07-21T10:23:26.155Z,98811.78
2017-07-21T10:25:55.318Z,98808.95
2017-07-21T10:28:23.459Z,98807.50
2017-07-21T10:30:51.549Z,98817.22
2017-07-21T10:33:21.006Z,98809.02
2017-07-21T10:35:49.587Z,98806.94
2017-07-21T10:38:18.547Z,98801.97
2017-07-21T10:40:46.881Z,98805.14
2017-07-21T10:43:14.970Z,98810.77
2017-07-21T10:45:43.051Z,98799.73
2017-07-21T10:48:11.379Z,98802.86
2017-07-21T10:50:39.762Z,98810.99
2017-07-21T10:53:07.875Z,98802.38
2017-07-21T10:55:36.316Z,98801.86
2017-07-21T10:58:04.455Z,98792.55
2017-07-21T11:00:32.538Z,98792.69
2017-07-21T11:03:00.918Z,98796.36
2017-07-21T11:05:28.978Z,98794.42
2017-07-21T11:07:57.041Z,98793.59
2017-07-21T11:10:25.401Z,98790.39
2017-07-21T11:12:53.459Z,98788.25
2017-07-21T11:15:21.503Z,98789.87
2017-07-21T11:17:49.886Z,98780.61
2017-07-21T11:20:19.386Z,98784.84
2017-07-21T11:22:47.471Z,98787.16
2017-07-21T11:25:15.900Z,98788.38
2017-07-21T11:27:43.986Z,98785.41
2017-07-21T11:30:12.098Z,98781.76
2017-07-21T11:32:40.560Z,98780.58
2017-07-21T11:35:08.647Z,98779.81
2017-07-21T11:37:36.708Z,98780.66
2017-07-21T11:40:05.082Z,98780.16
2017-07-21T11:42:33.489Z,98773.84
2017-07-21T11:45:01.948Z,98777.06
2017-07-21T11:47:30.709Z,98783.77
2017-07-21T11:49:58.959Z,98777.19
2017-07-21T11:52:27.000Z,98766.09
2017-07-21T11:54:55.323Z,98757.95
2017-07-21T11:57:23.633Z,98761.34
2017-07-21T11:59:51.722Z,98759.23
2017-07-21T12:02:21.851Z,98762.61
2017-07-21T12:04:49.902Z,98754.80
2017-07-21T12:07:19.326Z,98760.09
2017-07-21T12:09:47.762Z,98756.31
2017-07-21T12:12:16.774Z,98756.30
2017-07-21T12:14:44.890Z,98758.62
2017-07-21T12:17:13.248Z,98759.23
2017-07-21T12:19:41.367Z,98749.99
2017-07-21T12:22:09.502Z,98756.38
2017-07-21T12:24:38.494Z,98755.79
2017-07-21T12:27:06.903Z,98750.48
2017-07-21T12:29:35.734Z,98755.33
2017-07-21T12:32:04.095Z,98752.97
2017-07-21T12:34:32.174Z,98746.87
2017-07-21T12:37:00.262Z,98737.09
2017-07-21T12:39:28.569Z,98738.19
2017-07-21T12:41:56.683Z,98740.03
2017-07-21T12:44:24.742Z,98736.55
2017-07-21T12:46:53.124Z,98747.90
2017-07-21T12:49:21.226Z,98744.83
2017-07-21T12:51:49.318Z,98745.97
2017-07-21T12:54:17.666Z,98744.79
2017-07-21T12:56:45.752Z,98746.31
2017-07-21T12:59:13.820Z,98745.82
2017-07-21T13:01:42.201Z,98740.14
2017-07-21T13:04:10.274Z,98736.88
2017-07-21T13:06:38.731Z,98737.14
2017-07-21T13:09:07.915Z,98742.05
2017-07-21T13:11:36.007Z,98744.93
2017-07-21T13:14:04.227Z,98737.61
2017-07-21T13:16:32.571Z,98728.50
2017-07-21T13:19:00.638Z,98731.98
2017-07-21T13:21:28.743Z,98732.91
2017-07-21T13:23:58.370Z,98733.55
2017-07-21T13:26:26.494Z,98734.19
2017-07-21T13:28:54.551Z,98730.52
2017-07-21T13:31:22.882Z,98725.95
2017-07-21T13:33:51.082Z,98725.58
2017-07-21T13:36:20.179Z,98723.06
2017-07-21T13:38:48.546Z,98719.48
2017-07-21T13:41:17.635Z,98717.61
2017-07-21T13:43:45.751Z,98724.95
2017-07-21T13:46:14.178Z,98716.83
2017-07-21T13:48:42.284Z,98710.16
2017-07-21T13:51:10.367Z,98701.34
2017-07-21T13:53:39.326Z,98703.39
2017-07-21T13:56:07.404Z,98700.92
2017-07-21T13:58:35.451Z,98701.61
2017-07-21T14:01:03.821Z,98698.05
2017-07-21T14:03:31.886Z,98700.70
2017-07-21T14:05:59.953Z,98700.48
2017-07-21T14:08:28.506Z,98705.11
2017-07-21T14:10:57.282Z,98698.66
2017-07-21T14:13:25.310Z,98699.59
2017-07-21T14:15:53.651Z,98684.58
2017-07-21T14:18:21.727Z,98683.84
2017-07-21T14:20:49.805Z,98683.89
2017-07-21T14:23:19.421Z,98683.64
2017-07-21T14:25:47.496Z,98676.89
2017-07-21T14:28:16.222Z,98671.18
2017-07-21T14:30:44.695Z,98676.09
2017-07-21T14:33:12.860Z,98670.61
2017-07-21T14:35:41.067Z,98665.03
2017-07-21T14:38:09.434Z,98673.31
2017-07-21T14:40:37.736Z,98667.31
2017-07-21T14:43:05.854Z,98662.34
2017-07-21T14:45:34.259Z,98667.69
2017-07-21T14:48:02.341Z,98668.52
2017-07-21T14:50:30.405Z,98662.24
2017-07-21T14:52:58.748Z,98659.00
2017-07-21T14:55:27.069Z,98657.40
2017-07-21T14:57:55.114Z,98653.04
2017-07-21T15:00:23.484Z,98648.88
2017-07-21T15:02:51.554Z,98647.50
2017-07-21T15:05:20.027Z,98644.58
2017-07-21T15:07:48.351Z,98636.76
2017-07-21T15:10:17.887Z,98640.29
2017-07-21T15:12:45.934Z,98642.59
2017-07-21T15:15:14.278Z,98642.88
2017-07-21T15:17:42.335Z,98642.86
2017-07-21T15:20:10.391Z,98637.80
2017-07-21T15:22:38.736Z,98642.53
2017-07-21T15:25:06.778Z,98633.54
2017-07-21T15:27:34.880Z,98636.10
2017-07-21T15:30:03.972Z,98636.86
2017-07-21T15:32:32.146Z,98631.84
2017-07-21T15:35:00.222Z,98630.21
2017-07-21T15:37:28.603Z,98629.08
2017-07-21T15:39:56.678Z,98629.64
2017-07-21T15:42:24.734Z,98626.16
2017-07-21T15:44:53.182Z,98627.11
2017-07-21T15:47:21.430Z,98625.73
2017-07-21T15:49:49.723Z,98623.23
2017-07-21T15:52:19.030Z,98627.25
2017-07-21T15:54:47.227Z,98622.64
2017-07-21T15:57:15.742Z,98621.86
2017-07-21T15:59:44.117Z,98621.07
2017-07-21T16:02:12.184Z,98618.67
2017-07-21T16:04:40.235Z,98609.95
2017-07-21T16:07:08.559Z,98612.38
2017-07-21T16:09:36.618Z,98613.71
2017-07-21T16:12:04.762Z,98607.83
2017-07-21T16:14:33.114Z,98603.53
2017-07-21T16:17:01.155Z,98599.83
2017-07-21T16:19:29.223Z,98596.56
2017-07-21T16:21:57.546Z,98593.94
2017-07-21T16:24:25.751Z,98589.66
2017-07-21T16:26:53.803Z,98589.13
2017-07-21T16:29:22.122Z,98592.23
2017-07-21T16:31:50.199Z,98586.96
2017-07-21T16:34:19.702Z,98587.94
2017-07-21T16:36:48.041Z,98584.99
2017-07-21T16:39:17.019Z,98580.80
2017-07-21T16:41:45.126Z,98577.64
2017-07-21T16:44:13.479Z,98580.68
2017-07-21T16:46:41.579Z,98579.78
2017-07-21T16:49:09.770Z,98576.28
2017-07-21T16:51:38.150Z,98578.54
2017-07-21T16:54:06.591Z,98580.27
2017-07-21T16:56:34.691Z,98573.93
2017-07-21T16:59:03.034Z,98574.43
2017-07-21T17:01:31.491Z,98573.20
2017-07-21T17:03:59.905Z,98572.05
2017-07-21T17:06:28.748Z,98567.28
2017-07-21T17:08:56.826Z,98565.12
2017-07-21T17:11:24.887Z,98566.42
2017-07-21T17:13:53.207Z,98557.91
2017-07-21T17:16:21.242Z,98556.69
2017-07-21T17:18:49.324Z,98556.53
2017-07-21T17:21:18.963Z,98553.90
2017-07-21T17:23:47.092Z,98557.30
2017-07-21T17:26:15.295Z,98550.20
2017-07-21T17:28:43.667Z,98547.55
2017-07-21T17:31:11.846Z,98547.81
2017-07-21T17:33:39.903Z,98544.32
2017-07-21T17:36:08.238Z,98544.58
2017-07-21T17:38:36.355Z,98542.44
2017-07-21T17:41:04.419Z,98537.30
2017-07-21T17:43:32.799Z,98538.06
2017-07-21T17:46:00.867Z,98535.55
2017-07-21T17:48:28.954Z,98531.37
2017-07-21T17:50:57.304Z,98529.50
2017-07-21T17:53:25.366Z,98533.58
2017-07-21T17:55:53.464Z,98543.81
2017-07-21T17:58:21.843Z,98537.41
2017-07-21T18:00:49.945Z,98543.23
2017-07-21T18:03:18.863Z,98541.63
2017-07-21T18:05:47.209Z,98545.33
2017-07-21T18:08:15.288Z,98553.74
2017-07-21T18:10:43.376Z,98546.20
2017-07-21T18:13:11.738Z,98552.37
2017-07-21T18:15:39.830Z,98550.58
2017-07-21T18:18:08.006Z,98552.84
2017-07-21T18:20:36.404Z,98557.73
2017-07-21T18:23:04.472Z,98562.62
2017-07-21T18:25:32.535Z,98564.39
2017-07-21T18:28:00.927Z,98563.44
2017-07-21T18:30:29.039Z,98567.14
2017-07-21T18:32:57.104Z,98564.41
2017-07-21T18:35:25.462Z,98571.23
2017-07-21T18:37:53.544Z,98576.46
2017-07-21T18:40:21.958Z,98572.88
2017-07-21T18:42:50.298Z,98577.03
2017-07-21T18:45:20.487Z,98576.46
2017-07-21T18:47:49.823Z,98573.32
2017-07-21T18:50:19.938Z,98573.75
2017-07-21T18:52:48.062Z,98578.95
2017-07-21T18:55:16.874Z,98576.22
2017-07-21T18:57:45.255Z,98569.52
2017-07-21T19:00:13.780Z,98567.51
2017-07-21T19:02:41.842Z,98569.12
2017-07-21T19:05:10.190Z,98580.17
2017-07-21T19:07:38.264Z,98575.64
2017-07-21T19:10:06.377Z,98581.80
2017-07-21T19:12:35.972Z,98577.53
2017-07-21T19:15:04.203Z,98585.58
2017-07-21T19:17:32.287Z,98591.53
2017-07-21T19:20:00.707Z,98593.40
2017-07-21T19:22:30.118Z,98595.78
2017-07-21T19:24:58.710Z,98598.03
2017-07-21T19:27:27.138Z,98597.53
2017-07-21T19:29:55.246Z,98605.78
2017-07-21T19:32:24.026Z,98606.84
2017-07-21T19:34:52.472Z,98610.61
2017-07-21T19:37:21.139Z,98614.59
2017-07-21T19:39:49.326Z,98613.06
2017-07-21T19:42:19.379Z,98607.06
2017-07-21T19:44:47.595Z,98611.27
2017-07-21T19:47:15.724Z,98607.40
2017-07-21T19:49:44.103Z,98600.54
2017-07-21T19:52:12.234Z,98597.06
2017-07-21T19:54:40.301Z,98595.28
2017-07-21T19:57:08.736Z,98597.59
2017-07-21T19:59:40.156Z,98593.05
2017-07-21T20:02:08.235Z,98593.41
2017-07-21T20:04:36.581Z,98592.52
2017-07-21T20:07:04.638Z,98590.17
2017-07-21T20:09:32.746Z,98592.35
2017-07-21T20:12:01.140Z,98590.85
2017-07-21T20:14:29.230Z,98588.81
2017-07-21T20:16:57.910Z,98585.63
2017-07-21T20:19:26.264Z,98577.81
2017-07-21T20:21:54.727Z,98585.00
2017-07-21T20:24:22.843Z,98585.23
2017-07-21T20:26:51.208Z,98583.53
2017-07-21T20:29:20.842Z,98575.84
2017-07-21T20:31:48.903Z,98571.25
2017-07-21T20:34:18.134Z,98569.06
2017-07-21T20:36:46.193Z,98574.85
2017-07-21T20:39:14.271Z,98567.05
2017-07-21T20:41:42.919Z,98560.16
2017-07-21T20:44:10.970Z,98557.73
2017-07-21T20:46:39.046Z,98553.57
2017-07-21T20:49:07.405Z,98554.29
2017-07-21T20:51:36.075Z,98545.81
2017-07-21T20:54:04.179Z,98538.23
2017-07-21T20:56:32.606Z,98534.17
2017-07-21T20:59:00.764Z,98532.91
2017-07-21T21:01:28.880Z,98540.46
2017-07-21T21:03:57.321Z,98540.86
2017-07-21T21:06:25.487Z,98542.53
2017-07-21T21:08:53.609Z,98549.81
2017-07-21T21:11:22.898Z,98541.83
2017-07-21T21:13:51.022Z,98540.67
2017-07-21T21:16:20.616Z,98543.41
2017-07-21T21:18:49.022Z,98551.26
2017-07-21T21:21:18.476Z,98554.53
2017-07-21T21:23:46.674Z,98555.97
2017-07-21T21:26:15.068Z,98553.37
2017-07-21T21:28:43.184Z,98557.02
2017-07-21T21:31:11.406Z,98554.71
2017-07-21T21:33:40.334Z,98550.45
2017-07-21T21:36:08.870Z,98551.91
2017-07-21T21:38:37.016Z,98550.90
2017-07-21T21:41:05.455Z,98552.05
2017-07-21T21:43:33.591Z,98549.69
2017-07-21T21:46:01.667Z,98561.19
2017-07-21T21:48:30.128Z,98555.14
2017-07-21T21:50:58.280Z,98550.64
2017-07-21T21:53:26.394Z,98543.46
2017-07-21T21:55:54.779Z,98538.67
2017-07-21T21:58:22.847Z,98539.94
2017-07-21T22:00:50.938Z,98542.64
2017-07-21T22:03:22.516Z,98544.72
2017-07-21T22:05:50.635Z,98547.42
2017-07-21T22:08:19.852Z,98547.95
2017-07-21T22:10:51.411Z,98547.43
2017-07-21T22:13:21.276Z,98549.09
2017-07-21T22:15:55.734Z,98552.14
2017-07-21T22:18:24.500Z,98549.98
2017-07-21T22:20:52.962Z,98552.92
2017-07-21T22:23:21.039Z,98553.84
2017-07-21T22:25:49.540Z,98555.06
2017-07-21T22:28:19.786Z,98559.64
2017-07-21T22:30:48.090Z,98561.65
2017-07-21T22:33:17.522Z,98567.89
2017-07-21T22:35:45.766Z,98575.41
2017-07-21T22:38:13.858Z,98574.37
2017-07-21T22:40:42.269Z,98570.82
2017-07-21T22:43:10.383Z,98568.13
2017-07-21T22:45:38.898Z,98571.14
2017-07-21T22:48:07.251Z,98565.42
2017-07-21T22:50:35.967Z,98566.95
2017-07-21T22:53:04.824Z,98565.50
2017-07-21T22:55:34.472Z,98561.25
2017-07-21T22:58:07.147Z,98559.77
2017-07-21T23:00:36.319Z,98564.98
2017-07-21T23:03:08.996Z,98569.95
2017-07-21T23:05:40.519Z,98566.55
2017-07-21T23:08:10.376Z,98568.09
2017-07-21T23:10:43.071Z,98558.13
2017-07-21T23:13:11.468Z,98553.55
2017-07-21T23:15:39.932Z,98551.14
2017-07-21T23:18:08.371Z,98554.56
2017-07-21T23:20:36.466Z,98551.75
2017-07-21T23:23:05.054Z,98541.61
2017-07-21T23:25:33.363Z,98530.13
2017-07-21T23:28:01.433Z,98530.22
2017-07-21T23:30:29.871Z,98530.77
2017-07-21T23:32:58.551Z,98532.80
2017-07-21T23:35:26.591Z,98527.55
2017-07-21T23:37:55.196Z,98529.11
2017-07-21T23:40:23.546Z,98532.88
2017-07-21T23:42:51.650Z,98535.34
2017-07-21T23:45:20.456Z,98535.38
2017-07-21T23:47:48.783Z,98535.36
2017-07-21T23:50:18.595Z,98529.96
2017-07-21T23:52:47.334Z,98528.63
2017-07-21T23:55:15.698Z,98525.95
2017-07-21T23:57:43.859Z,98517.31
